Time;durP1;ratioP1;P1;durP2;ratioP2;P2;SDS_P1;SDS_P2;PMS_P1;PMS_P2;Temp;Humidity;BMP_temperature;BMP_pressure;BME280_temperature;BME280_humidity;BME280_pressure;Samples;Min_cycle;Max_cycle;Signal;HPM_P1;HPM_P2
2023/08/07 03:57:24;;;;;;;0.65;0.60;;;;;;;14.73;100.00;99597.59;6299710;27;20194;31
2023/08/07 04:00:28;;;;;;;0.60;0.50;;;;;;;14.78;100.00;99615.09;5306103;33;33349;-88
2023/08/07 04:03:32;;;;;;;0.82;0.50;;;;;;;14.79;100.00;99608.59;5306629;33;35156;-90
2023/08/07 04:06:34;;;;;;;0.73;0.60;;;;;;;14.73;100.00;99607.63;5307541;33;33671;-90
2023/08/07 04:09:38;;;;;;;0.70;0.70;;;;;;;14.72;100.00;99608.69;5308265;33;34600;-89
2023/08/07 04:12:40;;;;;;;0.55;0.55;;;;;;;14.69;100.00;99611.84;5318743;33;34372;-89
2023/08/07 04:15:43;;;;;;;0.37;0.37;;;;;;;14.78;100.00;99615.09;5307339;33;34515;-89
2023/08/07 04:18:46;;;;;;;1.00;0.62;;;;;;;14.74;100.00;99610.13;5318236;33;34464;-89
2023/08/07 04:21:49;;;;;;;1.20;0.47;;;;;;;14.71;100.00;99615.13;5305945;33;33818;-89
2023/08/07 04:24:52;;;;;;;1.20;0.62;;;;;;;14.66;100.00;99617.72;5307099;33;33882;-89
2023/08/07 04:27:55;;;;;;;0.77;0.70;;;;;;;14.73;100.00;99613.03;5307215;33;33662;-89
2023/08/07 04:30:58;;;;;;;0.40;0.40;;;;;;;14.77;100.00;99611.56;5317553;33;33768;-89
2023/08/07 04:34:01;;;;;;;4.68;0.60;;;;;;;14.81;100.00;99620.06;5307485;33;34429;-89
2023/08/07 04:37:05;;;;;;;1.75;0.40;;;;;;;14.81;100.00;99620.06;5307202;33;35683;-89
2023/08/07 04:40:08;;;;;;;0.80;0.80;;;;;;;14.79;100.00;99624.88;5307529;33;33898;-89
2023/08/07 04:43:12;;;;;;;1.50;0.50;;;;;;;14.80;100.00;99619.22;5307485;33;33928;-89
2023/08/07 04:46:15;;;;;;;2.58;0.80;;;;;;;14.82;100.00;99627.94;5307683;33;33775;-89
2023/08/07 04:49:18;;;;;;;0.50;0.50;;;;;;;14.87;100.00;99627.28;5318101;33;33879;-89
2023/08/07 04:52:21;;;;;;;1.67;0.73;;;;;;;14.94;100.00;99619.91;5306276;33;34750;-87
2023/08/07 04:55:28;;;;;;;1.00;0.60;;;;;;;15.13;100.00;99618.03;5306262;33;33767;-87
2023/08/07 04:58:31;;;;;;;0.52;0.50;;;;;;;15.33;100.00;99620.53;5307739;33;33862;-88
2023/08/07 05:01:34;;;;;;;1.50;0.57;;;;;;;15.52;100.00;99615.88;5294396;33;33796;-87
2023/08/07 05:04:37;;;;;;;0.50;0.50;;;;;;;15.70;100.00;99626.72;5294973;33;34737;-87
2023/08/07 05:07:41;;;;;;;0.60;0.60;;;;;;;15.83;100.00;99618.41;5310644;33;33802;-87
2023/08/07 05:10:44;;;;;;;0.98;0.80;;;;;;;15.91;100.00;99630.00;5310924;33;33693;-87
2023/08/07 05:13:47;;;;;;;1.00;0.60;;;;;;;15.90;100.00;99640.03;5309584;33;33882;-87
2023/08/07 05:16:50;;;;;;;0.50;0.50;;;;;;;15.77;100.00;99622.06;5298815;33;33646;-87
2023/08/07 05:19:53;;;;;;;0.98;0.80;;;;;;;15.72;100.00;99623.78;5310660;33;33967;-88
2023/08/07 05:22:56;;;;;;;2.17;0.85;;;;;;;15.83;100.00;99621.13;5296740;33;35053;-87
2023/08/07 05:25:59;;;;;;;1.85;0.60;;;;;;;15.92;100.00;99620.81;5308191;33;34709;-88
2023/08/07 05:29:01;;;;;;;12.27;1.02;;;;;;;16.06;100.00;99625.81;5295728;33;33572;-88
2023/08/07 05:32:06;;;;;;;1.65;0.55;;;;;;;16.19;100.00;99624.75;5295522;33;35052;-88
2023/08/07 05:35:09;;;;;;;1.12;0.60;;;;;;;16.40;100.00;99633.41;5307797;33;33904;-88
2023/08/07 05:38:12;;;;;;;0.85;0.70;;;;;;;16.53;100.00;99631.31;5307672;33;34008;-87
2023/08/07 05:41:16;;;;;;;1.23;0.62;;;;;;;16.68;100.00;99638.19;5309063;33;34726;-87
2023/08/07 05:44:18;;;;;;;2.17;0.75;;;;;;;16.69;100.00;99637.09;5307696;33;33861;-88
2023/08/07 05:47:21;;;;;;;1.42;0.47;;;;;;;16.65;100.00;99653.06;5296055;33;34629;-87
2023/08/07 05:50:24;;;;;;;0.57;0.57;;;;;;;16.74;100.00;99639.94;5307855;33;33818;-87
2023/08/07 05:53:27;;;;;;;0.70;0.70;;;;;;;16.68;100.00;99658.03;5296134;33;35004;-88
2023/08/07 05:56:30;;;;;;;4.03;0.60;;;;;;;16.66;100.00;99659.31;5295816;33;34725;-88
2023/08/07 05:59:34;;;;;;;1.17;0.50;;;;;;;16.63;100.00;99663.31;5309877;33;34355;-89
2023/08/07 06:02:37;;;;;;;0.70;0.70;;;;;;;16.60;100.00;99666.50;5308410;33;33826;-88
2023/08/07 06:05:40;;;;;;;1.08;0.75;;;;;;;16.59;100.00;99681.19;5307540;33;33478;-88
2023/08/07 06:08:43;;;;;;;3.03;1.00;;;;;;;16.69;100.00;99691.47;5307326;33;33669;-88
2023/08/07 06:11:47;;;;;;;1.52;0.70;;;;;;;16.71;100.00;99694.78;5307628;33;35501;-91
2023/08/07 06:14:51;;;;;;;1.30;0.70;;;;;;;16.90;100.00;99704.50;5307729;33;34273;-91
2023/08/07 06:17:54;;;;;;;3.12;0.75;;;;;;;16.89;100.00;99711.00;5296073;33;33934;-92
2023/08/07 06:20:57;;;;;;;0.47;0.47;;;;;;;16.94;100.00;99716.59;5307809;33;33842;-89
2023/08/07 06:23:59;;;;;;;1.15;0.70;;;;;;;17.04;100.00;99715.16;5308108;33;33500;-89
2023/08/07 06:27:03;;;;;;;0.90;0.62;;;;;;;17.44;100.00;99721.50;5296263;33;33822;-89
2023/08/07 06:30:07;;;;;;;3.22;0.75;;;;;;;17.56;100.00;99716.06;5308893;33;33943;-88
2023/08/07 06:33:10;;;;;;;1.37;0.60;;;;;;;17.57;100.00;99722.31;5308690;33;35147;-88
2023/08/07 06:36:16;;;;;;;0.88;0.62;;;;;;;17.52;97.91;99735.81;5296491;33;34901;-88
2023/08/07 06:39:18;;;;;;;0.50;0.50;;;;;;;17.65;96.03;99735.56;5296470;33;33445;-89
2023/08/07 06:42:21;;;;;;;1.35;0.40;;;;;;;17.60;94.40;99743.63;5308299;33;33810;-89
2023/08/07 06:45:25;;;;;;;0.60;0.57;;;;;;;17.61;93.46;99748.00;5300634;33;33770;-89
2023/08/07 06:48:28;;;;;;;0.43;0.43;;;;;;;17.43;94.18;99744.38;5313511;33;33848;-89
2023/08/07 06:51:31;;;;;;;0.62;0.37;;;;;;;17.42;93.59;99750.84;5317677;33;33728;-89
2023/08/07 06:54:34;;;;;;;0.52;0.40;;;;;;;17.40;96.77;99761.16;5323995;33;33963;-89
2023/08/07 06:57:37;;;;;;;3.35;0.60;;;;;;;17.43;96.86;99762.56;5314685;33;34054;-89
2023/08/07 07:04:46;;;;;;;0.47;0.45;;;;;;;17.63;93.50;99757.56;5510341;27;20115;-90
2023/08/07 07:15:57;;;;;;;1.48;0.37;;;;;;;18.20;89.82;99756.84;5438113;27;20075;-89
2023/08/07 07:19:00;;;;;;;0.65;0.60;;;;;;;18.16;87.41;99757.56;5389342;33;33630;-90
2023/08/07 07:22:03;;;;;;;0.65;0.60;;;;;;;18.38;92.55;99755.00;5425384;27;34680;-90
2023/08/07 07:25:07;;;;;;;0.35;0.35;;;;;;;18.41;85.83;99754.53;5367655;33;34718;-90
2023/08/07 07:28:10;;;;;;;1.35;0.60;;;;;;;18.56;84.86;99761.06;5378659;33;33637;-89
2023/08/07 07:31:13;;;;;;;0.60;0.50;;;;;;;18.64;83.65;99757.13;5359761;33;35147;-89
2023/08/07 07:34:44;;;;;;;0.35;0.35;;;;;;;18.56;82.22;99765.69;5373382;27;33888;-90
2023/08/07 07:37:48;;;;;;;0.85;0.40;;;;;;;18.53;84.80;99766.19;5426519;27;33858;-89
2023/08/07 07:40:50;;;;;;;0.40;0.40;;;;;;;18.52;84.08;99767.25;5489602;27;33762;-89
2023/08/07 07:43:53;;;;;;;1.83;0.55;;;;;;;18.50;84.15;99772.94;5385196;33;33810;-89
2023/08/07 07:46:58;;;;;;;2.50;0.85;;;;;;;18.47;84.16;99778.06;5377843;27;33827;-91
2023/08/07 07:50:08;;;;;;;0.65;0.40;;;;;;;18.38;82.81;99788.53;5398441;27;33460;-88
2023/08/07 07:53:11;;;;;;;0.90;0.82;;;;;;;18.35;85.27;99789.03;5362927;33;34848;-88
2023/08/07 07:56:16;;;;;;;0.35;0.35;;;;;;;18.10;85.21;99792.88;5416198;27;35206;-88
2023/08/07 07:59:19;;;;;;;0.20;0.20;;;;;;;17.89;85.33;99785.38;5477296;27;33974;-88
2023/08/07 08:02:26;;;;;;;0.35;0.35;;;;;;;17.79;86.69;99807.78;5430040;27;35248;-88
2023/08/07 08:09:42;;;;;;;0.30;0.30;;;;;;;17.98;85.75;99805.72;5456073;27;20802;-89
2023/08/07 08:12:46;;;;;;;0.55;0.55;;;;;;;17.95;82.41;99814.38;5491852;27;33935;-89
2023/08/07 08:15:49;;;;;;;0.28;0.28;;;;;;;18.00;82.25;99811.75;5396768;32;32726;-89
2023/08/07 08:18:52;;;;;;;0.30;0.30;;;;;;;18.36;82.46;99826.91;5426330;27;34995;-90
2023/08/07 08:21:55;;;;;;;0.40;0.40;;;;;;;18.63;83.92;99818.16;5450753;27;34736;-90
2023/08/07 08:25:00;;;;;;;0.30;0.30;;;;;;;19.04;82.31;99835.28;5408733;27;34781;-90
2023/08/07 08:28:02;;;;;;;0.55;0.45;;;;;;;19.22;77.69;99823.31;5397842;32;33804;-90
2023/08/07 08:31:06;;;;;;;0.98;0.37;;;;;;;19.29;77.28;99837.59;5397444;33;34035;-90
2023/08/07 08:34:09;;;;;;;1.55;0.40;;;;;;;19.69;77.45;99840.16;5382629;33;34525;-90
2023/08/07 08:37:12;;;;;;;0.70;0.40;;;;;;;19.58;78.20;99842.97;5380620;33;33583;-89
2023/08/07 08:40:17;;;;;;;0.47;0.20;;;;;;;19.68;75.54;99845.88;5460737;27;33956;-89
2023/08/07 08:43:21;;;;;;;0.68;0.40;;;;;;;19.89;72.63;99846.97;5388039;33;33717;-89
2023/08/07 08:46:27;;;;;;;0.50;0.50;;;;;;;20.01;71.74;99855.91;5403251;33;33925;-89
2023/08/07 08:49:35;;;;;;;0.32;0.30;;;;;;;20.32;71.11;99848.91;5424068;27;34513;-89
2023/08/07 08:52:44;;;;;;;1.40;0.30;;;;;;;20.56;70.70;99852.25;5440249;27;34799;-89
2023/08/07 08:56:09;;;;;;;1.75;0.37;;;;;;;20.64;70.47;99859.16;5499490;27;33943;-90
2023/08/07 08:59:13;;;;;;;0.20;0.20;;;;;;;20.60;70.37;99855.28;5386560;33;35135;-90
2023/08/07 09:02:17;;;;;;;0.20;0.20;;;;;;;20.09;70.33;99876.50;5396946;33;34018;-90
2023/08/07 09:05:21;;;;;;;0.40;0.40;;;;;;;19.98;71.58;99878.28;5365189;33;33807;-89
2023/08/07 09:08:26;;;;;;;3.75;0.62;;;;;;;20.10;73.80;99870.78;5381789;33;33925;-90
2023/08/07 09:11:30;;;;;;;2.20;0.40;;;;;;;20.34;72.58;99873.28;5381384;33;34418;-90
2023/08/07 09:14:40;;;;;;;0.40;0.40;;;;;;;20.23;73.98;99871.50;5383332;33;33749;-89
2023/08/07 09:17:44;;;;;;;2.28;0.40;;;;;;;20.00;73.01;99875.28;5380719;33;34480;-89
2023/08/07 09:20:48;;;;;;;1.90;0.60;;;;;;;19.90;73.15;99878.72;5373205;33;33988;-89
2023/08/07 09:23:51;;;;;;;0.75;0.30;;;;;;;19.99;72.31;99881.84;5359287;33;34032;-89
2023/08/07 09:26:55;;;;;;;0.55;0.35;;;;;;;20.42;72.19;99875.56;5360490;33;34014;-89
2023/08/07 09:29:59;;;;;;;0.20;0.20;;;;;;;20.66;69.99;99886.28;5363597;33;33970;-89
2023/08/07 09:33:02;;;;;;;0.17;0.17;;;;;;;20.55;68.51;99890.78;5359748;33;34009;-89
2023/08/07 09:36:06;;;;;;;0.40;0.40;;;;;;;20.47;69.46;99883.00;5372302;33;33555;-88
2023/08/07 09:39:11;;;;;;;0.25;0.22;;;;;;;20.81;69.43;99875.47;5360489;33;34029;-89
2023/08/07 09:42:15;;;;;;;1.48;0.30;;;;;;;20.88;68.50;99876.09;5349093;33;33606;-89
2023/08/07 09:45:23;;;;;;;0.20;0.20;;;;;;;21.09;67.55;99879.87;5391615;27;35461;-89
2023/08/07 09:48:27;;;;;;;0.20;0.20;;;;;;;21.00;68.85;99884.13;5382457;33;33925;-89
2023/08/07 09:51:44;;;;;;;0.57;0.30;;;;;;;20.75;66.79;99890.19;5381570;33;34310;-89
2023/08/07 09:54:48;;;;;;;0.32;0.32;;;;;;;20.29;70.18;99887.69;5411608;27;35219;-89
2023/08/07 09:57:52;;;;;;;0.20;0.20;;;;;;;19.87;71.34;99901.06;5418777;32;34357;-89
2023/08/07 10:00:59;;;;;;;0.98;0.20;;;;;;;19.69;73.94;99918.56;5426008;27;33873;-89
2023/08/07 10:04:06;;;;;;;0.30;0.30;;;;;;;20.06;71.31;99920.72;5389184;33;33884;-89
2023/08/07 10:07:12;;;;;;;0.10;0.10;;;;;;;19.59;72.34;99910.16;5382212;33;34433;-89
2023/08/07 10:10:17;;;;;;;1.40;0.30;;;;;;;19.57;73.49;99928.69;5406149;27;34820;-90
2023/08/07 10:17:23;;;;;;;0.17;0.17;;;;;;;19.77;73.96;99915.38;5438931;27;34559;-89
2023/08/07 10:20:28;;;;;;;0.45;0.10;;;;;;;20.56;70.61;99920.62;5379018;27;33671;-90
2023/08/07 10:23:35;;;;;;;0.20;0.20;;;;;;;21.36;64.41;99917.34;5430337;27;32190;-89
2023/08/07 10:26:54;;;;;;;0.20;0.20;;;;;;;21.72;68.56;99921.22;5522970;27;33895;-90
2023/08/07 10:30:20;;;;;;;0.40;0.20;;;;;;;21.93;64.64;99925.75;5440067;27;34726;-90
2023/08/07 10:33:24;;;;;;;0.20;0.10;;;;;;;21.85;63.59;99929.00;5401916;33;35071;-89
2023/08/07 10:36:35;;;;;;;0.75;0.20;;;;;;;21.15;65.67;99910.84;5410621;27;33496;-90
2023/08/07 10:40:03;;;;;;;0.60;0.40;;;;;;;20.64;68.11;99929.44;5402201;32;33863;-90
2023/08/07 10:43:06;;;;;;;2.12;0.20;;;;;;;20.96;68.50;99929.53;5397554;33;33645;-89
2023/08/07 10:46:21;;;;;;;0.10;0.10;;;;;;;20.81;68.24;99931.03;5411976;27;34435;-90
2023/08/07 10:49:38;;;;;;;1.20;0.40;;;;;;;20.37;70.53;99931.00;5394628;33;34945;-90
2023/08/07 10:52:41;;;;;;;0.28;0.28;;;;;;;20.48;69.16;99929.25;5448186;27;35350;-90
2023/08/07 10:55:45;;;;;;;0.20;0.20;;;;;;;20.53;70.12;99948.50;5407300;32;35357;-90
2023/08/07 11:02:47;;;;;;;;;;;;;;;20.80;67.72;99934.03;5480452;27;20114;-90
2023/08/07 11:05:53;;;;;;;0.28;0.20;;;;;;;20.28;71.57;99954.41;5400456;33;35065;-90
2023/08/07 11:08:56;;;;;;;1.73;0.37;;;;;;;20.24;72.12;99950.53;5402378;33;34043;-90
2023/08/07 11:11:59;;;;;;;0.10;0.10;;;;;;;20.59;72.72;99952.94;5373346;33;34133;-90
2023/08/07 11:15:06;;;;;;;1.75;0.50;;;;;;;20.68;70.05;99950.59;5429227;27;34109;-90
2023/08/07 11:18:10;;;;;;;0.70;0.37;;;;;;;20.90;68.35;99952.47;5378429;33;35358;-90
2023/08/07 11:21:13;;;;;;;1.40;0.20;;;;;;;20.51;70.94;99958.81;5488352;27;34092;-90
2023/08/07 11:24:18;;;;;;;0.20;0.20;;;;;;;20.91;69.71;99948.63;5452010;27;34503;-89
2023/08/07 11:27:22;;;;;;;0.25;0.13;;;;;;;21.45;67.31;99954.97;5440622;27;34334;-89
2023/08/07 11:30:25;;;;;;;0.75;0.20;;;;;;;22.86;61.96;99954.50;5490247;27;33580;-89
2023/08/07 11:33:29;;;;;;;0.13;0.13;;;;;;;23.41;60.16;99947.50;5386502;27;33903;-89
2023/08/07 11:36:33;;;;;;;0.57;0.50;;;;;;;24.02;57.83;99954.94;5401373;33;33757;-89
2023/08/07 11:39:42;;;;;;;0.77;0.40;;;;;;;23.43;58.34;99961.81;5415669;32;34884;-89
2023/08/07 11:42:45;;;;;;;0.52;0.30;;;;;;;23.48;58.92;99950.81;5399171;32;33908;-89
2023/08/07 11:45:48;;;;;;;0.25;0.25;;;;;;;22.37;59.82;99955.66;5388099;33;33934;-90
2023/08/07 11:48:51;;;;;;;3.80;0.35;;;;;;;22.01;62.29;99962.81;5422134;27;34146;-89
2023/08/07 11:51:54;;;;;;;1.70;0.30;;;;;;;21.16;65.33;99956.31;5418606;27;33870;-89
2023/08/07 11:54:57;;;;;;;0.90;0.37;;;;;;;20.99;69.81;99967.34;5394468;32;33714;-88
2023/08/07 11:58:09;;;;;;;1.55;0.30;;;;;;;21.72;65.87;99965.06;5491406;27;33889;-90
2023/08/07 12:05:40;;;;;;;1.48;0.60;;;;;;;22.89;61.88;99969.63;5429615;27;33374;-89
2023/08/07 12:08:43;;;;;;;0.30;0.30;;;;;;;22.85;63.06;99972.91;5413379;33;35312;-90
2023/08/07 12:11:46;;;;;;;1.20;0.45;;;;;;;24.79;56.42;99977.59;5426798;27;34787;-89
2023/08/07 12:14:53;;;;;;;0.35;0.35;;;;;;;25.44;53.88;99968.44;5431831;32;34948;-89
2023/08/07 12:18:03;;;;;;;0.57;0.28;;;;;;;26.08;50.97;99961.84;5426835;32;35054;-89
2023/08/07 12:21:07;;;;;;;0.55;0.20;;;;;;;27.46;47.43;99975.91;5421681;32;34073;-89
2023/08/07 12:24:12;;;;;;;2.55;0.20;;;;;;;29.34;43.95;99965.97;5419747;32;33801;-88
2023/08/07 12:27:15;;;;;;;1.10;0.40;;;;;;;28.89;42.38;99953.94;5404646;32;33413;-88
2023/08/07 12:30:18;;;;;;;3.50;0.43;;;;;;;29.50;42.38;99948.97;5403639;32;33637;-88
2023/08/07 12:33:21;;;;;;;0.70;0.37;;;;;;;30.87;37.71;99961.16;5386392;32;33619;-87
2023/08/07 12:36:24;;;;;;;0.28;0.28;;;;;;;30.03;37.76;99978.72;5386543;33;33778;-87
2023/08/07 12:39:27;;;;;;;1.45;0.20;;;;;;;30.66;35.37;99963.69;5384991;33;33830;-88
2023/08/07 12:42:33;;;;;;;1.75;0.68;;;;;;;29.12;36.94;99990.88;5374240;33;33886;-88
2023/08/07 12:45:36;;;;;;;2.15;0.40;;;;;;;27.86;39.12;99973.66;5397793;33;33595;-87
2023/08/07 12:48:41;;;;;;;1.02;0.10;;;;;;;29.47;36.54;99980.91;5397508;33;33878;-87
2023/08/07 12:51:44;;;;;;;1.92;0.25;;;;;;;30.03;35.12;99970.41;5384207;33;33895;-88
2023/08/07 12:54:47;;;;;;;0.20;0.20;;;;;;;28.08;38.01;99984.03;5385616;33;33740;-87
2023/08/07 12:57:52;;;;;;;0.43;0.40;;;;;;;25.87;42.29;99986.03;5384575;33;35481;-88
2023/08/07 13:00:55;;;;;;;0.20;0.20;;;;;;;23.41;49.46;99983.22;5384972;33;35090;-87
2023/08/07 13:03:58;;;;;;;1.85;0.30;;;;;;;22.51;52.83;99988.09;5384750;33;34148;-87
2023/08/07 13:07:01;;;;;;;0.70;0.20;;;;;;;23.29;50.68;99994.47;5373005;33;34101;-88
2023/08/07 13:10:05;;;;;;;1.95;0.30;;;;;;;25.72;43.45;99988.91;5389330;32;33905;-87
2023/08/07 13:13:08;;;;;;;2.78;0.30;;;;;;;27.64;38.89;99999.94;5417676;32;34883;-87
2023/08/07 13:16:11;;;;;;;1.12;0.20;;;;;;;27.90;38.40;100000.37;5404075;32;33743;-88
2023/08/07 13:19:15;;;;;;;0.60;0.47;;;;;;;26.33;40.20;99999.41;5418869;32;33640;-90
2023/08/07 13:22:19;;;;;;;1.85;0.40;;;;;;;26.79;40.03;100007.19;5415427;32;34131;-92
2023/08/07 13:25:22;;;;;;;1.85;0.40;;;;;;;25.64;42.36;100019.84;5386168;33;34239;-92
2023/08/07 13:28:25;;;;;;;0.28;0.28;;;;;;;25.63;42.27;100009.94;5371020;33;34686;-87
2023/08/07 13:31:28;;;;;;;1.15;0.45;;;;;;;25.12;43.27;100022.03;5383900;33;33741;-87
2023/08/07 13:34:31;;;;;;;0.20;0.20;;;;;;;23.71;46.95;100012.69;5381797;33;33663;-87
2023/08/07 13:37:37;;;;;;;0.20;0.20;;;;;;;23.31;49.53;100029.91;5395794;32;32621;-87
2023/08/07 13:40:40;;;;;;;0.40;0.32;;;;;;;22.08;52.00;100026.47;5400763;32;34153;-87
2023/08/07 13:43:43;;;;;;;0.37;0.30;;;;;;;21.14;55.50;100030.47;5398750;33;34113;-88
2023/08/07 13:46:47;;;;;;;1.17;0.32;;;;;;;21.35;56.21;100028.78;5408300;32;35025;-87
2023/08/07 13:49:50;;;;;;;0.30;0.30;;;;;;;20.79;57.21;100039.06;5415866;32;33820;-88
2023/08/07 13:52:53;;;;;;;0.28;0.28;;;;;;;20.43;59.51;100035.81;5416762;32;33472;-88
2023/08/07 13:56:15;;;;;;;0.43;0.22;;;;;;;19.61;63.50;100039.09;5402583;32;33745;-87
2023/08/07 13:59:18;;;;;;;0.35;0.35;;;;;;;19.52;64.86;100049.59;5417749;32;33980;-87
2023/08/07 14:02:21;;;;;;;0.20;0.20;;;;;;;19.76;63.81;100046.75;5416592;32;34733;-87
2023/08/07 14:05:24;;;;;;;1.17;0.32;;;;;;;19.85;64.39;100054.28;5405461;32;33432;-87
2023/08/07 14:08:28;;;;;;;0.60;0.60;;;;;;;19.79;65.48;100055.28;5416986;32;33947;-87
2023/08/07 14:11:31;;;;;;;1.65;0.47;;;;;;;19.77;65.70;100051.13;5417589;32;33876;-87
2023/08/07 14:14:34;;;;;;;0.60;0.50;;;;;;;19.66;66.48;100061.91;5418711;32;34015;-87
2023/08/07 14:17:37;;;;;;;0.32;0.20;;;;;;;19.15;67.74;100069.06;5405173;32;33864;-87
2023/08/07 14:20:40;;;;;;;1.40;0.30;;;;;;;18.43;71.86;100074.84;5417758;32;33549;-87
2023/08/07 14:24:06;;;;;;;0.43;0.43;;;;;;;18.17;73.82;100078.84;5417970;32;33315;-88
2023/08/07 14:27:08;;;;;;;0.28;0.28;;;;;;;17.94;75.05;100084.25;5418943;32;33703;-87
2023/08/07 14:30:12;;;;;;;0.28;0.28;;;;;;;17.68;79.41;100083.56;5416885;32;33890;-87
2023/08/07 14:33:15;;;;;;;0.50;0.40;;;;;;;17.40;80.28;100078.69;5418241;32;33892;-88
2023/08/07 14:36:18;;;;;;;0.30;0.30;;;;;;;17.23;82.27;100087.50;5404928;32;33609;-87
2023/08/07 14:39:21;;;;;;;1.27;0.40;;;;;;;17.08;85.80;100078.94;5404775;32;33873;-87
2023/08/07 14:42:26;;;;;;;1.58;0.40;;;;;;;16.93;87.30;100087.44;5416804;32;35637;-88
2023/08/07 14:45:29;;;;;;;0.20;0.20;;;;;;;17.07;89.48;100087.28;5403808;32;35020;-87
2023/08/07 14:48:32;;;;;;;0.43;0.40;;;;;;;16.95;88.35;100085.34;5404444;32;34507;-87
2023/08/07 14:51:34;;;;;;;0.52;0.50;;;;;;;16.89;89.71;100083.53;5398551;32;34595;-88
2023/08/07 14:54:37;;;;;;;1.33;0.60;;;;;;;16.83;89.99;100087.16;5367092;33;33513;-87
2023/08/07 14:57:40;;;;;;;0.32;0.32;;;;;;;16.87;90.67;100093.78;5367288;33;33749;-87
2023/08/07 15:00:43;;;;;;;1.20;0.65;;;;;;;16.73;90.93;100094.94;5379139;33;33397;-87
2023/08/07 15:03:46;;;;;;;0.65;0.60;;;;;;;16.75;90.79;100090.94;5380536;33;33504;-88
2023/08/07 15:06:50;;;;;;;2.28;0.65;;;;;;;16.72;91.39;100094.13;5362539;33;164424;-90
2023/08/07 15:09:53;;;;;;;0.50;0.50;;;;;;;16.73;92.27;100095.81;5383998;33;34044;-91
2023/08/07 15:12:56;;;;;;;1.10;0.40;;;;;;;16.61;93.17;100103.00;5369353;33;34830;-91
2023/08/07 15:15:59;;;;;;;2.37;0.68;;;;;;;16.47;93.33;100098.78;5371308;33;34213;-91
2023/08/07 15:19:02;;;;;;;0.62;0.50;;;;;;;16.51;93.78;100106.25;5371690;33;33488;-87
2023/08/07 15:22:05;;;;;;;0.68;0.62;;;;;;;16.37;98.87;100104.72;5365218;33;33614;-88
2023/08/07 15:25:08;;;;;;;1.83;0.40;;;;;;;16.31;99.27;100100.16;5371939;33;34051;-88
2023/08/07 15:28:11;;;;;;;0.40;0.40;;;;;;;16.24;97.44;100094.78;5379640;33;33790;-87
2023/08/07 15:31:14;;;;;;;0.60;0.60;;;;;;;16.32;97.54;100090.94;5379696;33;33689;-88
2023/08/07 15:34:17;;;;;;;0.65;0.65;;;;;;;16.17;98.75;100095.91;5381278;33;35067;-87
2023/08/07 15:37:20;;;;;;;1.25;0.70;;;;;;;16.20;98.75;100090.84;5367599;33;33888;-88
2023/08/07 15:40:22;;;;;;;0.68;0.65;;;;;;;16.23;98.98;100095.88;5379130;33;34612;-88
2023/08/07 15:43:25;;;;;;;0.70;0.60;;;;;;;16.29;100.00;100096.81;5367970;33;34985;-87
2023/08/07 15:46:29;;;;;;;0.73;0.73;;;;;;;16.27;99.78;100096.25;5367890;33;34271;-87
2023/08/07 15:49:32;;;;;;;1.05;0.60;;;;;;;16.30;100.00;100098.50;5367033;33;33843;-87
2023/08/07 15:52:35;;;;;;;0.50;0.50;;;;;;;16.27;100.00;100097.06;5383005;33;33737;-87
2023/08/07 15:55:38;;;;;;;0.40;0.40;;;;;;;16.39;100.00;100105.31;5392100;33;33985;-87
